Creek Data

    Home     View Charts     View Raw Data     Messages

ID Distance Battery Voltage Battery Current Internal Temp Internal Humidity External Temp Solar Input rssi snr Time Stamp Record
68353 14.8 3.64 -5 50 53 51 0 -75 8 03/08/2026 11:00 PM 51218
68352 14.8 3.64 -5 50 54 53 0.1 -74 8 03/08/2026 10:45 PM 51217
68351 14.8 3.73 -5 51 54 53 0 -74 8 03/08/2026 10:30 PM 51216
68350 14.8 3.73 -5 52 54 53 0 -75 8 03/08/2026 10:15 PM 51215
68349 14.8 3.73 -5 53 55 54 0 -75 8 03/08/2026 10:00 PM 51214
68348 14.8 3.73 -5 53 55 53 0 -73 8 03/08/2026 09:45 PM 51213
68347 14.8 3.73 -5 55 55 58 0 -74 8 03/08/2026 09:30 PM 51212
68346 14.8 3.65 -5 56 55 58 0 -74 8 03/08/2026 09:15 PM 51211
68345 14.8 3.65 -5 56 56 59 0 -75 8 03/08/2026 09:00 PM 51210
68344 14.8 3.65 -5 56 57 60 0 -75 8 03/08/2026 08:45 PM 51209
68343 14.8 3.74 -5 58 58 59 0.1 -74 8 03/08/2026 08:30 PM 51208
68342 14.8 3.66 -5 59 59 60 0.1 -74 7 03/08/2026 08:15 PM 51207
68341 14.8 3.66 -5 60 61 61 0 -74 8 03/08/2026 08:00 PM 51206
68340 14.8 3.66 -5 62 62 61 0 -74 8 03/08/2026 07:45 PM 51205
68339 14.8 3.74 -5 65 62 64 0.1 -74 8 03/08/2026 07:30 PM 51204
68338 14.8 3.66 -5 69 64 67 1.6 -75 8 03/08/2026 07:15 PM 51203
68337 14.9 3.66 -5 73 63 67 4.5 -75 8 03/08/2026 07:00 PM 51202
68336 14.9 3.80 9 82 58 71 4.5 -75 8 03/08/2026 06:45 PM 51201
68335 14.9 3.81 41 86 56 73 4.5 -75 8 03/08/2026 06:30 PM 51200
68334 14.9 3.73 7 89 55 76 5.1 -75 8 03/08/2026 06:15 PM 51199
68333 14.9 3.73 0 89 55 79 5.1 -75 7 03/08/2026 06:00 PM 51198
68332 15.0 3.72 6 90 55 78 5.1 -75 8 03/08/2026 05:45 PM 51197
68331 14.9 3.72 7 94 52 77 5.1 -75 8 03/08/2026 05:30 PM 51196
68330 14.9 3.90 7 96 50 80 5.1 -75 8 03/08/2026 05:15 PM 51195
68329 15.0 3.72 6 95 50 79 5.1 -75 8 03/08/2026 05:00 PM 51194